Time;durP1;ratioP1;P1;durP2;ratioP2;P2;SDS_P1;SDS_P2;PMS_P1;PMS_P2;Temp;Humidity;BMP_temperature;BMP_pressure;BME280_temperature;BME280_humidity;BME280_pressure;Samples;Min_cycle;Max_cycle;Signal;HPM_P1;HPM_P2
2023/03/24 00:02:07;;;;;;;10.70;8.80;;;;;;;-128.00;-1.00;-1.00;106583;1254;1011667;-50
2023/03/24 00:04:35;;;;;;;15.80;11.10;;;;;;;-128.00;-1.00;-1.00;106472;1254;1012206;-48
2023/03/24 00:07:04;;;;;;;14.30;10.10;;;;;;;-128.00;-1.00;-1.00;105033;1254;1010065;-49
2023/03/24 00:09:32;;;;;;;13.20;9.70;;;;;;;-128.00;-1.00;-1.00;102892;1257;1011710;-46
2023/03/24 00:12:00;;;;;;;11.40;8.40;;;;;;;-128.00;-1.00;-1.00;104295;1255;1002850;-48
2023/03/24 00:14:37;;;;;;;10.40;8.20;;;;;;;-128.00;-1.00;-1.00;102794;1259;1013050;-48
2023/03/24 00:17:08;;;;;;;9.40;8.30;;;;;;;-128.00;-1.00;-1.00;102837;1259;1012752;-48
2023/03/24 00:19:37;;;;;;;10.40;9.20;;;;;;;-128.00;-1.00;-1.00;103815;1257;1010156;-51
2023/03/24 00:22:07;;;;;;;9.80;8.40;;;;;;;-128.00;-1.00;-1.00;102960;1253;1010878;-45
2023/03/24 00:24:34;;;;;;;12.50;8.10;;;;;;;-128.00;-1.00;-1.00;103029;1254;1013112;-47
2023/03/24 00:27:02;;;;;;;9.60;8.60;;;;;;;-128.00;-1.00;-1.00;103624;1257;1002586;-47
2023/03/24 00:29:35;;;;;;;10.40;8.20;;;;;;;-128.00;-1.00;-1.00;102743;1260;1012298;-48
2023/03/24 00:32:03;;;;;;;11.20;9.30;;;;;;;-128.00;-1.00;-1.00;102777;1255;1010482;-51
2023/03/24 00:34:33;;;;;;;11.00;8.10;;;;;;;-128.00;-1.00;-1.00;102707;1260;1011453;-51
2023/03/24 00:37:01;;;;;;;13.50;10.30;;;;;;;-128.00;-1.00;-1.00;102795;1257;1014016;-47
2023/03/24 00:39:29;;;;;;;10.50;7.60;;;;;;;-128.00;-1.00;-1.00;102752;1259;1013059;-50
2023/03/24 00:42:00;;;;;;;12.10;10.00;;;;;;;-128.00;-1.00;-1.00;102848;1255;1013167;-46
2023/03/24 00:44:28;;;;;;;13.70;9.10;;;;;;;-128.00;-1.00;-1.00;103072;1260;1009904;-50
2023/03/24 00:46:56;;;;;;;10.00;8.90;;;;;;;-128.00;-1.00;-1.00;102773;1260;1002585;-47
2023/03/24 00:49:46;;;;;;;11.00;9.30;;;;;;;-128.00;-1.00;-1.00;103879;1260;1002637;-48
2023/03/24 00:52:19;;;;;;;10.40;9.40;;;;;;;-128.00;-1.00;-1.00;103561;1257;1013936;-49
2023/03/24 00:54:54;;;;;;;12.40;9.60;;;;;;;-128.00;-1.00;-1.00;103107;1261;1012085;-50
2023/03/24 00:57:22;;;;;;;10.70;8.30;;;;;;;-128.00;-1.00;-1.00;102897;1266;1009604;-45
2023/03/24 00:59:51;;;;;;;10.50;9.20;;;;;;;-128.00;-1.00;-1.00;103135;1257;1011671;-50
2023/03/24 01:02:23;;;;;;;10.30;9.30;;;;;;;-128.00;-1.00;-1.00;102945;1259;1013975;-49
2023/03/24 01:04:53;;;;;;;12.60;9.90;;;;;;;-128.00;-1.00;-1.00;103439;1260;1011938;-49
2023/03/24 01:07:25;;;;;;;12.60;9.80;;;;;;;-128.00;-1.00;-1.00;102930;1257;1013149;-51
2023/03/24 01:09:56;;;;;;;14.90;9.70;;;;;;;-128.00;-1.00;-1.00;102625;1261;1009792;-46
2023/03/24 01:12:30;;;;;;;11.80;9.70;;;;;;;-128.00;-1.00;-1.00;103254;1255;1010703;-49
2023/03/24 01:14:59;;;;;;;10.40;8.10;;;;;;;-128.00;-1.00;-1.00;102899;1260;1012777;-49
2023/03/24 01:17:28;;;;;;;11.40;8.80;;;;;;;-128.00;-1.00;-1.00;102953;1267;1012839;-50
2023/03/24 01:19:56;;;;;;;9.90;8.70;;;;;;;-128.00;-1.00;-1.00;103956;1257;1013341;-44
2023/03/24 01:22:28;;;;;;;8.80;7.90;;;;;;;-128.00;-1.00;-1.00;102917;1254;1010557;-50
2023/03/24 01:24:57;;;;;;;12.80;10.10;;;;;;;-128.00;-1.00;-1.00;102854;1260;1010321;-47
2023/03/24 01:27:26;;;;;;;12.70;9.10;;;;;;;-128.00;-1.00;-1.00;102722;1257;1012569;-48
2023/03/24 01:30:00;;;;;;;10.40;9.40;;;;;;;-128.00;-1.00;-1.00;102875;1257;1012764;-47
2023/03/24 01:32:29;;;;;;;11.80;8.50;;;;;;;-128.00;-1.00;-1.00;103010;1254;1012409;-48
2023/03/24 01:34:57;;;;;;;10.50;9.40;;;;;;;-128.00;-1.00;-1.00;102743;1261;1002619;-49
2023/03/24 01:37:25;;;;;;;13.70;8.00;;;;;;;-128.00;-1.00;-1.00;104486;1254;1002683;-46
2023/03/24 01:39:53;;;;;;;11.50;10.10;;;;;;;-128.00;-1.00;-1.00;102764;1257;1002261;-47
2023/03/24 01:42:23;;;;;;;11.30;8.50;;;;;;;-128.00;-1.00;-1.00;103354;1255;1002761;-48
2023/03/24 01:44:55;;;;;;;11.10;9.30;;;;;;;-128.00;-1.00;-1.00;102827;1256;1012551;-49
2023/03/24 01:47:23;;;;;;;11.80;10.20;;;;;;;-128.00;-1.00;-1.00;102807;1255;1009714;-48
2023/03/24 01:49:53;;;;;;;11.20;8.80;;;;;;;-128.00;-1.00;-1.00;103067;1259;1002833;-48
2023/03/24 01:52:24;;;;;;;14.60;10.20;;;;;;;-128.00;-1.00;-1.00;103308;1260;1013543;-49
2023/03/24 01:54:55;;;;;;;11.20;9.90;;;;;;;-128.00;-1.00;-1.00;102932;1260;1013557;-48
2023/03/24 01:57:36;;;;;;;11.80;10.70;;;;;;;-128.00;-1.00;-1.00;102880;1254;1012999;-46
2023/03/24 02:00:10;;;;;;;10.80;9.60;;;;;;;-128.00;-1.00;-1.00;103581;1254;1010831;-46
2023/03/24 02:02:44;;;;;;;12.30;9.80;;;;;;;-128.00;-1.00;-1.00;103232;1257;1010484;-50
2023/03/24 02:05:13;;;;;;;13.50;11.00;;;;;;;-128.00;-1.00;-1.00;102788;1260;1012752;-50
2023/03/24 02:07:52;;;;;;;20.10;11.70;;;;;;;-128.00;-1.00;-1.00;102908;1254;1012077;-47
2023/03/24 02:10:21;;;;;;;13.50;10.40;;;;;;;-128.00;-1.00;-1.00;106455;1254;1012626;-48
2023/03/24 02:12:49;;;;;;;11.20;9.00;;;;;;;-128.00;-1.00;-1.00;106400;1257;1009475;-47
2023/03/24 02:15:18;;;;;;;14.20;9.40;;;;;;;-128.00;-1.00;-1.00;106421;1254;1011148;-50
2023/03/24 02:18:08;;;;;;;14.60;10.00;;;;;;;-128.00;-1.00;-1.00;106363;1253;1012894;-49
2023/03/24 02:20:52;;;;;;;12.30;9.20;;;;;;;-128.00;-1.00;-1.00;106530;1257;1011815;-49
2023/03/24 02:23:26;;;;;;;11.60;9.90;;;;;;;-128.00;-1.00;-1.00;106380;1253;1012551;-49
2023/03/24 02:26:12;;;;;;;14.00;9.90;;;;;;;-128.00;-1.00;-1.00;106353;1254;1010508;-49
2023/03/24 02:28:51;;;;;;;12.90;10.10;;;;;;;-128.00;-1.00;-1.00;106314;1260;1011486;-49
2023/03/24 02:31:33;;;;;;;20.00;10.30;;;;;;;-128.00;-1.00;-1.00;106293;1255;1013320;-50
2023/03/24 02:34:19;;;;;;;12.10;10.30;;;;;;;-128.00;-1.00;-1.00;106233;1254;1013299;-48
2023/03/24 02:37:01;;;;;;;11.20;9.50;;;;;;;-128.00;-1.00;-1.00;106293;1254;1013323;-48
2023/03/24 02:39:51;;;;;;;11.70;10.00;;;;;;;-128.00;-1.00;-1.00;106173;1257;1011767;-51
2023/03/24 02:42:25;;;;;;;11.60;10.50;;;;;;;-128.00;-1.00;-1.00;106392;1254;1010857;-49
2023/03/24 02:45:25;;;;;;;14.50;10.70;;;;;;;-128.00;-1.00;-1.00;106213;1256;1013080;-48
2023/03/24 02:48:05;;;;;;;9.40;8.40;;;;;;;-128.00;-1.00;-1.00;106220;1254;1012970;-49
2023/03/24 02:51:03;;;;;;;13.00;9.80;;;;;;;-128.00;-1.00;-1.00;106226;1254;1012850;-49
2023/03/24 02:53:34;;;;;;;12.20;10.70;;;;;;;-128.00;-1.00;-1.00;106202;1257;1010508;-50
2023/03/24 02:56:24;;;;;;;11.40;9.50;;;;;;;-128.00;-1.00;-1.00;106413;1254;1011163;-48
2023/03/24 02:59:01;;;;;;;14.60;11.00;;;;;;;-128.00;-1.00;-1.00;104372;1257;1013686;-47
2023/03/24 03:01:57;;;;;;;11.80;10.10;;;;;;;-128.00;-1.00;-1.00;102610;1257;1012464;-48
2023/03/24 03:04:53;;;;;;;11.20;9.90;;;;;;;-128.00;-1.00;-1.00;102797;1254;1013199;-47
2023/03/24 03:07:24;;;;;;;10.90;9.70;;;;;;;-128.00;-1.00;-1.00;103480;1259;1010307;-49
2023/03/24 03:10:01;;;;;;;9.70;8.70;;;;;;;-128.00;-1.00;-1.00;102695;1257;1010973;-48
2023/03/24 03:12:32;;;;;;;13.50;10.40;;;;;;;-128.00;-1.00;-1.00;102753;1257;1012237;-45
2023/03/24 03:15:11;;;;;;;11.00;9.80;;;;;;;-128.00;-1.00;-1.00;102832;1254;1013113;-49
2023/03/24 03:17:47;;;;;;;11.20;9.50;;;;;;;-128.00;-1.00;-1.00;104392;1257;1013026;-49
2023/03/24 03:20:23;;;;;;;11.10;9.90;;;;;;;-128.00;-1.00;-1.00;103990;1254;1010734;-49
2023/03/24 03:22:55;;;;;;;14.40;9.00;;;;;;;-128.00;-1.00;-1.00;103114;1258;1011498;-46
2023/03/24 03:25:26;;;;;;;11.60;9.80;;;;;;;-128.00;-1.00;-1.00;103124;1260;1013752;-49
2023/03/24 03:27:57;;;;;;;13.00;9.10;;;;;;;-128.00;-1.00;-1.00;103947;1256;1011988;-48
2023/03/24 03:30:36;;;;;;;13.50;10.00;;;;;;;-128.00;-1.00;-1.00;102907;1256;1013008;-48
2023/03/24 03:33:17;;;;;;;11.40;9.40;;;;;;;-128.00;-1.00;-1.00;102411;1254;1009879;-45
2023/03/24 03:35:56;;;;;;;10.10;8.80;;;;;;;-128.00;-1.00;-1.00;103371;1260;1011655;-48
2023/03/24 03:38:27;;;;;;;9.80;7.50;;;;;;;-128.00;-1.00;-1.00;102713;1260;1012979;-47
2023/03/24 03:41:00;;;;;;;12.30;10.80;;;;;;;-128.00;-1.00;-1.00;102595;1255;1012413;-47
2023/03/24 03:43:32;;;;;;;12.20;10.40;;;;;;;-128.00;-1.00;-1.00;102831;1259;1013581;-47
2023/03/24 03:46:03;;;;;;;11.60;9.60;;;;;;;-128.00;-1.00;-1.00;102920;1260;1010507;-47
2023/03/24 03:48:35;;;;;;;14.70;11.00;;;;;;;-128.00;-1.00;-1.00;103141;1257;1011387;-47
2023/03/24 03:51:12;;;;;;;14.20;9.10;;;;;;;-128.00;-1.00;-1.00;102737;1260;1013379;-47
2023/03/24 03:53:57;;;;;;;9.00;7.60;;;;;;;-128.00;-1.00;-1.00;103258;1254;1012896;-46
2023/03/24 03:56:26;;;;;;;12.80;10.40;;;;;;;-128.00;-1.00;-1.00;102862;1256;1013181;-47
2023/03/24 03:59:28;;;;;;;13.10;8.40;;;;;;;-128.00;-1.00;-1.00;102621;1259;1009663;-48
2023/03/24 04:01:57;;;;;;;11.40;10.00;;;;;;;-128.00;-1.00;-1.00;102768;1257;1011731;-47
2023/03/24 04:04:51;;;;;;;11.50;10.00;;;;;;;-128.00;-1.00;-1.00;102973;1257;1013426;-49
2023/03/24 04:07:56;;;;;;;11.90;10.10;;;;;;;-128.00;-1.00;-1.00;102895;1257;1012537;-50
2023/03/24 04:11:03;;;;;;;13.70;10.90;;;;;;;-128.00;-1.00;-1.00;102573;1260;1013266;-49
2023/03/24 04:13:58;;;;;;;16.90;10.60;;;;;;;-128.00;-1.00;-1.00;102643;1256;1011912;-49
2023/03/24 04:17:17;;;;;;;13.90;11.00;;;;;;;-128.00;-1.00;-1.00;103170;1257;1010612;-47
2023/03/24 04:20:04;;;;;;;13.50;11.60;;;;;;;-128.00;-1.00;-1.00;102914;1259;1012894;-48
2023/03/24 04:23:08;;;;;;;14.60;11.50;;;;;;;-128.00;-1.00;-1.00;104729;1254;1011696;-49
2023/03/24 04:26:13;;;;;;;13.50;11.50;;;;;;;-128.00;-1.00;-1.00;103602;1256;1012351;-49
2023/03/24 04:29:03;;;;;;;11.20;9.60;;;;;;;-128.00;-1.00;-1.00;102628;1256;1010374;-49
2023/03/24 04:31:34;;;;;;;15.60;9.70;;;;;;;-128.00;-1.00;-1.00;102881;1257;1011573;-48
2023/03/24 04:34:24;;;;;;;11.60;9.80;;;;;;;-128.00;-1.00;-1.00;103041;1254;1012857;-47
2023/03/24 04:36:55;;;;;;;12.20;10.60;;;;;;;-128.00;-1.00;-1.00;103329;1259;1013374;-52
2023/03/24 04:39:37;;;;;;;14.60;10.50;;;;;;;-128.00;-1.00;-1.00;102491;1254;1012957;-48
2023/03/24 04:42:12;;;;;;;11.70;10.40;;;;;;;-128.00;-1.00;-1.00;102958;1259;1010663;-47
2023/03/24 04:44:40;;;;;;;13.80;10.50;;;;;;;-128.00;-1.00;-1.00;102902;1257;1011385;-48
2023/03/24 04:47:38;;;;;;;14.20;11.10;;;;;;;-128.00;-1.00;-1.00;102584;1259;1013491;-48
2023/03/24 04:50:14;;;;;;;12.10;9.30;;;;;;;-128.00;-1.00;-1.00;103277;1257;1013141;-51
2023/03/24 04:52:44;;;;;;;14.20;10.90;;;;;;;-128.00;-1.00;-1.00;102485;1259;1012956;-50
2023/03/24 04:55:34;;;;;;;15.10;10.50;;;;;;;-128.00;-1.00;-1.00;103402;1260;1010764;-48
2023/03/24 04:58:03;;;;;;;11.70;9.40;;;;;;;-128.00;-1.00;-1.00;102952;1260;1011531;-49
2023/03/24 05:00:31;;;;;;;14.30;9.60;;;;;;;-128.00;-1.00;-1.00;102452;1257;1012747;-49
2023/03/24 05:02:59;;;;;;;14.70;9.80;;;;;;;-128.00;-1.00;-1.00;103396;1259;1002452;-46
2023/03/24 05:05:30;;;;;;;12.90;8.70;;;;;;;-128.00;-1.00;-1.00;102755;1256;1012599;-51
2023/03/24 05:07:59;;;;;;;11.50;10.30;;;;;;;-128.00;-1.00;-1.00;102556;1258;1002709;-51
2023/03/24 05:10:29;;;;;;;15.00;10.30;;;;;;;-128.00;-1.00;-1.00;106335;1256;1012135;-48
2023/03/24 05:12:57;;;;;;;11.00;9.60;;;;;;;-128.00;-1.00;-1.00;106250;1254;1013502;-47
2023/03/24 05:15:25;;;;;;;10.80;9.80;;;;;;;-128.00;-1.00;-1.00;106317;1256;1002446;-50
2023/03/24 05:18:12;;;;;;;12.30;9.20;;;;;;;-128.00;-1.00;-1.00;106398;1254;1012953;-50
2023/03/24 05:20:42;;;;;;;12.30;8.80;;;;;;;-128.00;-1.00;-1.00;106210;1256;1010767;-48
2023/03/24 05:23:15;;;;;;;12.50;10.20;;;;;;;-128.00;-1.00;-1.00;106147;1254;1011144;-48
2023/03/24 05:25:45;;;;;;;15.50;10.90;;;;;;;-128.00;-1.00;-1.00;102365;1260;1013457;-48
2023/03/24 05:28:15;;;;;;;18.90;10.90;;;;;;;-128.00;-1.00;-1.00;105733;1256;1012400;-52
2023/03/24 05:30:43;;;;;;;15.60;10.90;;;;;;;-128.00;-1.00;-1.00;106208;1258;1013601;-50
2023/03/24 05:33:26;;;;;;;12.50;9.80;;;;;;;-128.00;-1.00;-1.00;106152;1254;1010343;-48
2023/03/24 05:35:54;;;;;;;12.00;10.20;;;;;;;-128.00;-1.00;-1.00;106200;1256;1011172;-48
2023/03/24 05:38:28;;;;;;;13.30;11.50;;;;;;;-128.00;-1.00;-1.00;106166;1256;1012297;-46
2023/03/24 05:40:57;;;;;;;12.00;10.30;;;;;;;-128.00;-1.00;-1.00;106152;1256;1003156;-47
2023/03/24 05:43:30;;;;;;;11.90;9.90;;;;;;;-128.00;-1.00;-1.00;106278;1255;1013386;-47
2023/03/24 05:46:06;;;;;;;13.90;11.40;;;;;;;-128.00;-1.00;-1.00;106217;1256;1010118;-46
2023/03/24 05:48:35;;;;;;;19.50;12.60;;;;;;;-128.00;-1.00;-1.00;106224;1256;1011225;-47
2023/03/24 05:51:22;;;;;;;15.70;13.00;;;;;;;-128.00;-1.00;-1.00;106253;1256;1012595;-47
2023/03/24 05:53:57;;;;;;;19.40;12.60;;;;;;;-128.00;-1.00;-1.00;106374;1256;1012695;-47
2023/03/24 05:56:46;;;;;;;16.80;13.10;;;;;;;-128.00;-1.00;-1.00;106402;1254;1013458;-47
2023/03/24 05:59:14;;;;;;;15.50;11.20;;;;;;;-128.00;-1.00;-1.00;102792;1258;1002545;-47
2023/03/24 06:01:57;;;;;;;11.30;9.90;;;;;;;-128.00;-1.00;-1.00;102505;1259;1010660;-47
2023/03/24 06:04:44;;;;;;;16.60;11.60;;;;;;;-128.00;-1.00;-1.00;102601;1259;1013717;-48
2023/03/24 06:07:16;;;;;;;11.20;10.00;;;;;;;-128.00;-1.00;-1.00;102971;1256;1012833;-49
2023/03/24 06:09:45;;;;;;;11.00;8.60;;;;;;;-128.00;-1.00;-1.00;103067;1256;1013828;-49
2023/03/24 06:12:15;;;;;;;10.70;9.50;;;;;;;-128.00;-1.00;-1.00;103581;1254;1010929;-48
2023/03/24 06:14:56;;;;;;;11.40;9.60;;;;;;;-128.00;-1.00;-1.00;103199;1259;1011461;-47
2023/03/24 06:17:29;;;;;;;13.00;9.90;;;;;;;-128.00;-1.00;-1.00;102692;1259;1013605;-47
2023/03/24 06:20:02;;;;;;;15.00;9.60;;;;;;;-128.00;-1.00;-1.00;102553;1259;1012695;-48
2023/03/24 06:22:31;;;;;;;12.20;8.90;;;;;;;-128.00;-1.00;-1.00;103050;1257;1013087;-47
2023/03/24 06:25:02;;;;;;;12.80;8.80;;;;;;;-128.00;-1.00;-1.00;102913;1256;1010600;-48
2023/03/24 06:27:31;;;;;;;12.10;10.10;;;;;;;-128.00;-1.00;-1.00;102975;1259;1011139;-49
2023/03/24 06:30:00;;;;;;;12.30;10.00;;;;;;;-128.00;-1.00;-1.00;102342;1259;1012822;-48
2023/03/24 06:32:28;;;;;;;10.00;8.10;;;;;;;-128.00;-1.00;-1.00;102580;1260;1012820;-47
2023/03/24 06:34:56;;;;;;;12.50;8.00;;;;;;;-128.00;-1.00;-1.00;102842;1257;1012397;-47
2023/03/24 06:37:32;;;;;;;9.70;8.70;;;;;;;-128.00;-1.00;-1.00;102787;1259;1010301;-47
2023/03/24 06:40:01;;;;;;;12.20;9.40;;;;;;;-128.00;-1.00;-1.00;102939;1260;1010957;-47
2023/03/24 06:42:31;;;;;;;13.30;9.30;;;;;;;-128.00;-1.00;-1.00;103418;1259;1013342;-46
2023/03/24 06:45:00;;;;;;;15.40;9.20;;;;;;;-128.00;-1.00;-1.00;102871;1257;1013043;-48
2023/03/24 06:47:29;;;;;;;13.00;9.30;;;;;;;-128.00;-1.00;-1.00;102451;1259;1012793;-45
2023/03/24 06:49:57;;;;;;;21.70;9.80;;;;;;;-128.00;-1.00;-1.00;103056;1259;1010807;-48
2023/03/24 06:52:26;;;;;;;12.50;7.90;;;;;;;-128.00;-1.00;-1.00;103072;1257;1011506;-48
2023/03/24 06:54:57;;;;;;;11.60;9.80;;;;;;;-128.00;-1.00;-1.00;103521;1259;1013789;-50
2023/03/24 06:57:27;;;;;;;11.70;9.90;;;;;;;-128.00;-1.00;-1.00;102734;1259;1012209;-49
2023/03/24 07:00:15;;;;;;;18.30;10.70;;;;;;;-128.00;-1.00;-1.00;102815;1257;1013313;-47
2023/03/24 07:03:15;;;;;;;18.70;12.90;;;;;;;-128.00;-1.00;-1.00;103254;1257;1011062;-47
2023/03/24 07:05:54;;;;;;;22.00;13.00;;;;;;;-128.00;-1.00;-1.00;103430;1254;1011443;-50
2023/03/24 07:08:22;;;;;;;23.10;16.20;;;;;;;-128.00;-1.00;-1.00;103149;1254;1012396;-48
2023/03/24 07:11:08;;;;;;;19.40;15.40;;;;;;;-128.00;-1.00;-1.00;103009;1254;1012975;-47
2023/03/24 07:13:38;;;;;;;16.80;13.70;;;;;;;-128.00;-1.00;-1.00;102810;1254;1013360;-49
2023/03/24 07:16:08;;;;;;;18.20;13.50;;;;;;;-128.00;-1.00;-1.00;102728;1254;1013554;-49
2023/03/24 07:18:37;;;;;;;18.00;13.40;;;;;;;-128.00;-1.00;-1.00;102580;1260;1011653;-49
2023/03/24 07:21:07;;;;;;;19.90;13.60;;;;;;;-128.00;-1.00;-1.00;103230;1257;1012226;-50
2023/03/24 07:23:41;;;;;;;17.90;13.50;;;;;;;-128.00;-1.00;-1.00;102642;1257;1012669;-46
2023/03/24 07:26:21;;;;;;;19.40;11.40;;;;;;;-128.00;-1.00;-1.00;102400;1259;1012996;-49
2023/03/24 07:28:56;;;;;;;22.00;11.60;;;;;;;-128.00;-1.00;-1.00;102518;1254;1011105;-50
2023/03/24 07:31:53;;;;;;;16.80;12.00;;;;;;;-128.00;-1.00;-1.00;103108;1257;1010881;-45
2023/03/24 07:34:21;;;;;;;21.10;13.10;;;;;;;-128.00;-1.00;-1.00;103227;1254;1013084;-49
2023/03/24 07:36:50;;;;;;;18.90;13.00;;;;;;;-128.00;-1.00;-1.00;102500;1257;1013826;-47
2023/03/24 07:39:19;;;;;;;19.90;13.60;;;;;;;-128.00;-1.00;-1.00;103008;1260;1013237;-48
2023/03/24 07:41:48;;;;;;;18.30;12.80;;;;;;;-128.00;-1.00;-1.00;103494;1258;1010862;-50
2023/03/24 07:46:46;;;;;;;16.20;12.90;;;;;;;13.11;100.00;99258.42;102007;1298;600215;-49
2023/03/24 07:49:14;;;;;;;17.90;13.10;;;;;;;13.10;100.00;99266.40;104360;1264;59221;-48
2023/03/24 07:52:05;;;;;;;18.90;13.60;;;;;;;13.13;100.00;99270.16;104691;1264;59612;-49
2023/03/24 07:54:39;;;;;;;19.30;13.00;;;;;;;13.16;100.00;99266.91;104331;1263;70727;-49
2023/03/24 07:57:07;;;;;;;14.80;11.90;;;;;;;13.21;100.00;99259.77;104392;1268;68709;-48
2023/03/24 07:59:38;;;;;;;16.50;12.80;;;;;;;13.25;100.00;99251.17;104999;1263;158227;-48
2023/03/24 08:02:50;;;;;;;19.10;11.50;;;;;;;13.32;100.00;99250.17;105360;1263;61112;-49
2023/03/24 08:05:45;;;;;;;13.20;9.80;;;;;;;13.40;100.00;99251.80;105827;1259;60377;-48
2023/03/24 08:08:30;;;;;;;12.60;10.00;;;;;;;13.48;100.00;99246.93;104412;1261;73015;-48
2023/03/24 08:10:58;;;;;;;15.70;12.30;;;;;;;13.54;100.00;99241.46;104816;1266;67751;-49
2023/03/24 08:13:26;;;;;;;90.70;17.90;;;;;;;13.59;100.00;99236.23;104815;1266;73663;-48
2023/03/24 08:15:54;;;;;;;17.00;11.20;;;;;;;13.65;100.00;99241.58;108723;1262;60182;-50
2023/03/24 08:18:33;;;;;;;12.60;9.60;;;;;;;13.71;100.00;99236.35;108795;1261;61340;-48
2023/03/24 08:21:04;;;;;;;;;;;;;;;13.75;100.00;99236.38;108653;1260;71505;-49
2023/03/24 08:23:35;;;;;;;15.90;8.60;;;;;;;13.80;100.00;99234.80;108727;1262;66679;-49
2023/03/24 08:26:03;;;;;;;15.50;9.90;;;;;;;13.84;100.00;99234.33;108708;1261;72292;-49
2023/03/24 08:28:32;;;;;;;13.50;9.00;;;;;;;13.88;100.00;99232.03;108690;1262;60912;-48
2023/03/24 08:31:01;;;;;;;10.40;9.20;;;;;;;13.92;100.00;99227.98;108695;1261;59585;-48
2023/03/24 08:33:33;;;;;;;14.80;9.50;;;;;;;13.96;100.00;99229.09;108661;1263;72316;-48
2023/03/24 08:36:01;;;;;;;15.10;8.60;;;;;;;14.01;100.00;99224.46;108671;1261;66652;-49
2023/03/24 08:38:29;;;;;;;13.70;9.00;;;;;;;14.06;100.00;99220.69;108641;1261;71877;-47
2023/03/24 08:41:00;;;;;;;8.70;7.70;;;;;;;14.10;100.00;99216.43;105126;1264;59778;-50
2023/03/24 08:43:30;;;;;;;12.40;8.70;;;;;;;14.15;100.00;99212.79;108538;1261;62228;-50
2023/03/24 08:46:02;;;;;;;8.70;7.70;;;;;;;14.22;100.00;99209.45;108629;1260;73211;-47
2023/03/24 08:48:31;;;;;;;8.90;6.90;;;;;;;14.28;100.00;99212.79;108667;1260;65536;-49
2023/03/24 08:50:59;;;;;;;9.80;7.90;;;;;;;14.34;100.00;99210.16;107379;1263;73602;-48
2023/03/24 08:53:28;;;;;;;10.70;8.80;;;;;;;14.41;100.00;99210.05;105004;1264;60210;-49
2023/03/24 08:55:56;;;;;;;14.90;8.70;;;;;;;14.47;100.00;99211.05;104896;1263;60985;-50
2023/03/24 08:58:26;;;;;;;7.90;7.10;;;;;;;14.53;100.00;99207.59;104662;1266;73047;-47
2023/03/24 09:00:54;;;;;;;10.10;7.40;;;;;;;14.59;100.00;99204.98;104851;1262;66118;-49
2023/03/24 09:03:23;;;;;;;11.10;8.50;;;;;;;14.65;100.00;99196.88;104877;1266;72096;-48
2023/03/24 09:05:55;;;;;;;12.80;7.60;;;;;;;14.73;100.00;99194.30;104393;1266;60647;-49
2023/03/24 09:08:24;;;;;;;11.30;8.70;;;;;;;14.82;100.00;99192.75;106079;1263;60335;-47
2023/03/24 09:10:52;;;;;;;14.60;8.70;;;;;;;14.91;100.00;99196.06;104561;1265;74201;-50
2023/03/24 09:13:20;;;;;;;12.30;8.80;;;;;;;15.00;100.00;99203.16;104422;1260;68201;-46
2023/03/24 09:15:50;;;;;;;11.10;10.00;;;;;;;15.10;100.00;99198.01;105526;1265;73936;-51
2023/03/24 09:18:19;;;;;;;11.70;9.50;;;;;;;15.21;100.00;99199.23;104813;1264;60505;-47
2023/03/24 09:20:48;;;;;;;13.90;8.60;;;;;;;15.31;100.00;99197.93;104397;1262;59097;-51
2023/03/24 09:23:18;;;;;;;9.90;8.50;;;;;;;15.40;100.00;99193.55;105404;1264;74548;-50
2023/03/24 09:25:49;;;;;;;11.20;9.00;;;;;;;15.49;100.00;99191.63;104589;1264;67404;-49
2023/03/24 09:28:19;;;;;;;26.80;10.00;;;;;;;15.57;100.00;99185.85;104531;1263;73008;-48
2023/03/24 09:30:48;;;;;;;17.90;9.00;;;;;;;15.67;100.00;99181.23;104638;1262;59733;-49
2023/03/24 09:33:17;;;;;;;10.00;7.90;;;;;;;15.77;100.00;99178.92;105811;1265;59636;-48
2023/03/24 09:35:45;;;;;;;12.40;8.70;;;;;;;15.88;100.00;99172.65;104574;1260;72256;-50
2023/03/24 09:38:14;;;;;;;12.50;8.20;;;;;;;15.98;100.00;99169.20;104457;1259;67323;-49
2023/03/24 09:40:52;;;;;;;8.20;7.10;;;;;;;16.06;100.00;99162.52;104816;1257;72303;-49
2023/03/24 09:43:29;;;;;;;9.10;7.80;;;;;;;16.13;100.00;99165.77;104617;1265;61535;-48
2023/03/24 09:45:58;;;;;;;9.00;6.90;;;;;;;16.17;100.00;99163.11;106092;1259;61503;-47
2023/03/24 09:48:38;;;;;;;9.20;7.70;;;;;;;16.21;100.00;99164.40;104529;1257;72114;-49
2023/03/24 09:51:09;;;;;;;10.10;7.60;;;;;;;16.24;100.00;99163.82;105038;1263;69133;-46
2023/03/24 09:54:22;;;;;;;10.90;7.40;;;;;;;16.26;100.00;99162.02;104759;1258;71906;-47
2023/03/24 09:56:50;;;;;;;7.30;5.60;;;;;;;16.32;100.00;99161.48;105080;1267;60397;-50
2023/03/24 09:59:28;;;;;;;8.70;7.20;;;;;;;16.40;100.00;99161.05;105391;1267;59553;-49
2023/03/24 10:01:56;;;;;;;10.30;6.30;;;;;;;16.46;100.00;99163.96;105123;1268;72065;-47
2023/03/24 10:04:25;;;;;;;8.80;6.20;;;;;;;16.52;100.00;99159.65;105863;1260;67603;-49
2023/03/24 10:07:15;;;;;;;8.40;6.60;;;;;;;16.58;100.00;99156.10;105644;1261;73971;-51
2023/03/24 10:09:44;;;;;;;9.20;6.40;;;;;;;16.63;100.00;99160.77;105219;1263;61961;-47
2023/03/24 10:12:42;;;;;;;6.60;5.90;;;;;;;16.69;100.00;99155.75;105727;1263;59552;-47
2023/03/24 10:15:37;;;;;;;6.00;5.50;;;;;;;16.79;100.00;99156.06;105111;1260;73292;-51
2023/03/24 10:18:18;;;;;;;5.10;4.70;;;;;;;16.88;100.00;99148.73;105662;1254;66204;-48
2023/03/24 10:21:07;;;;;;;7.90;6.00;;;;;;;16.98;100.00;99146.81;105242;1260;71974;-48
2023/03/24 10:23:58;;;;;;;8.40;6.50;;;;;;;17.07;100.00;99147.64;105347;1254;61076;-48
2023/03/24 10:26:38;;;;;;;7.10;6.40;;;;;;;17.18;100.00;99142.05;105463;1254;60805;-46
2023/03/24 10:29:18;;;;;;;7.70;6.60;;;;;;;17.27;100.00;99139.62;105401;1254;72549;-47
2023/03/24 10:32:13;;;;;;;7.90;5.80;;;;;;;17.37;100.00;99139.99;105372;1259;68033;-50
2023/03/24 10:34:43;;;;;;;4.10;3.70;;;;;;;17.48;100.00;99133.31;106907;1254;73096;-48
2023/03/24 10:37:11;;;;;;;3.90;3.50;;;;;;;17.55;100.00;99129.73;105328;1260;61382;-49
2023/03/24 10:39:42;;;;;;;3.00;2.70;;;;;;;17.64;100.00;99129.32;104973;1260;60554;-47
2023/03/24 10:42:15;;;;;;;3.50;3.00;;;;;;;17.71;100.00;99127.80;105249;1258;73416;-50
2023/03/24 10:44:51;;;;;;;5.10;3.10;;;;;;;17.78;100.00;99121.77;105202;1256;68577;-50
2023/03/24 10:47:26;;;;;;;2.30;2.20;;;;;;;17.86;100.00;99117.48;104962;1254;71734;-47
2023/03/24 10:50:01;;;;;;;5.80;3.50;;;;;;;17.91;100.00;99118.09;105269;1259;59605;-51
2023/03/24 10:52:45;;;;;;;4.30;3.10;;;;;;;17.96;100.00;99115.88;106822;1254;59611;-49
2023/03/24 10:55:16;;;;;;;4.80;2.80;;;;;;;17.99;100.00;99106.66;105304;1258;73757;-49
2023/03/24 10:57:52;;;;;;;2.70;2.50;;;;;;;18.02;100.00;99100.20;105340;1254;66667;-50
2023/03/24 11:00:30;;;;;;;3.90;3.40;;;;;;;18.07;100.00;99101.25;105203;1254;71775;-51
2023/03/24 11:03:00;;;;;;;3.90;3.00;;;;;;;18.13;100.00;99097.95;106631;1256;60532;-49
2023/03/24 11:05:34;;;;;;;3.00;2.00;;;;;;;18.18;100.00;99092.24;106464;1254;59732;-48
2023/03/24 11:08:20;;;;;;;4.90;3.60;;;;;;;18.22;100.00;99093.52;105255;1254;73872;-47
2023/03/24 11:10:48;;;;;;;3.90;2.80;;;;;;;18.25;100.00;99091.11;106516;1254;68271;-49
2023/03/24 11:13:28;;;;;;;3.30;2.40;;;;;;;18.28;100.00;99084.45;106705;1259;72650;-47
2023/03/24 11:16:15;;;;;;;5.50;3.30;;;;;;;18.30;100.00;99088.66;105276;1259;60611;-49
2023/03/24 11:19:00;;;;;;;8.30;2.70;;;;;;;18.33;100.00;99086.57;105984;1259;60075;-50
2023/03/24 11:21:30;;;;;;;3.00;2.10;;;;;;;18.36;100.00;99081.54;105380;1259;71289;-49
2023/03/24 11:24:00;;;;;;;3.50;2.40;;;;;;;18.39;100.00;99069.42;105380;1259;67613;-51
2023/03/24 11:26:33;;;;;;;4.50;2.00;;;;;;;18.43;100.00;99067.77;108983;1254;71947;-46
2023/03/24 11:29:09;;;;;;;3.10;1.90;;;;;;;18.51;100.00;99072.66;107158;1254;59781;-50
2023/03/24 11:31:39;;;;;;;1.80;1.50;;;;;;;18.59;100.00;99066.58;105193;1259;59646;-49
2023/03/24 11:34:10;;;;;;;1.90;1.60;;;;;;;18.65;100.00;99066.70;108947;1254;72487;-48
2023/03/24 11:36:41;;;;;;;3.80;1.40;;;;;;;18.67;100.00;99062.67;108918;1254;66022;-48
2023/03/24 11:39:18;;;;;;;2.20;1.90;;;;;;;18.70;100.00;99065.36;109139;1254;72615;-48
2023/03/24 11:42:05;;;;;;;1.70;1.50;;;;;;;18.70;100.00;99060.59;109157;1254;60216;-49
2023/03/24 11:44:36;;;;;;;4.10;1.50;;;;;;;18.72;100.00;99059.52;108990;1256;60270;-50
2023/03/24 11:47:22;;;;;;;;;;;;;;;18.73;100.00;99053.60;109097;1254;72146;-48
2023/03/24 11:50:11;;;;;;;1.60;1.30;;;;;;;18.72;100.00;99051.10;109030;1254;69022;-48